sensor_id;sensor_type;location;lat;lon;timestamp;P1;durP1;ratioP1;P2;durP2;ratioP2
6898;SDS011;3488;42.616;23.350;2022-11-18T00:01:47;7.88;;;6.35;;
6898;SDS011;3488;42.616;23.350;2022-11-18T00:04:14;6.65;;;5.85;;
6898;SDS011;3488;42.616;23.350;2022-11-18T00:06:41;6.65;;;5.88;;
6898;SDS011;3488;42.616;23.350;2022-11-18T00:09:08;11.48;;;6.05;;
6898;SDS011;3488;42.616;23.350;2022-11-18T00:11:36;7.07;;;6.05;;
6898;SDS011;3488;42.616;23.350;2022-11-18T00:14:22;8.75;;;6.35;;
6898;SDS011;3488;42.616;23.350;2022-11-18T00:16:52;9.50;;;6.95;;
6898;SDS011;3488;42.616;23.350;2022-11-18T00:19:21;7.80;;;6.30;;
6898;SDS011;3488;42.616;23.350;2022-11-18T00:21:50;9.32;;;6.90;;
6898;SDS011;3488;42.616;23.350;2022-11-18T00:24:17;9.85;;;6.38;;
6898;SDS011;3488;42.616;23.350;2022-11-18T00:26:46;5.95;;;5.32;;
6898;SDS011;3488;42.616;23.350;2022-11-18T00:29:13;8.48;;;6.20;;
6898;SDS011;3488;42.616;23.350;2022-11-18T00:31:41;7.05;;;6.43;;
6898;SDS011;3488;42.616;23.350;2022-11-18T00:34:09;7.60;;;6.78;;
6898;SDS011;3488;42.616;23.350;2022-11-18T00:36:37;7.30;;;6.00;;
6898;SDS011;3488;42.616;23.350;2022-11-18T00:39:04;7.80;;;6.80;;
6898;SDS011;3488;42.616;23.350;2022-11-18T00:41:31;7.93;;;6.15;;
6898;SDS011;3488;42.616;23.350;2022-11-18T00:44:13;6.97;;;6.35;;
6898;SDS011;3488;42.616;23.350;2022-11-18T00:46:39;9.13;;;6.60;;
6898;SDS011;3488;42.616;23.350;2022-11-18T00:49:07;8.43;;;6.05;;
6898;SDS011;3488;42.616;23.350;2022-11-18T00:51:34;7.63;;;6.30;;
6898;SDS011;3488;42.616;23.350;2022-11-18T00:54:02;5.95;;;5.35;;
6898;SDS011;3488;42.616;23.350;2022-11-18T00:56:28;7.22;;;6.47;;
6898;SDS011;3488;42.616;23.350;2022-11-18T00:58:55;6.85;;;6.15;;
6898;SDS011;3488;42.616;23.350;2022-11-18T01:01:23;7.93;;;4.93;;
6898;SDS011;3488;42.616;23.350;2022-11-18T01:03:51;7.70;;;6.40;;
6898;SDS011;3488;42.616;23.350;2022-11-18T01:06:19;6.57;;;5.93;;
6898;SDS011;3488;42.616;23.350;2022-11-18T01:08:46;7.78;;;7.05;;
6898;SDS011;3488;42.616;23.350;2022-11-18T01:11:13;8.85;;;7.13;;
6898;SDS011;3488;42.616;23.350;2022-11-18T01:13:57;8.98;;;7.53;;
6898;SDS011;3488;42.616;23.350;2022-11-18T01:16:26;9.65;;;7.22;;
6898;SDS011;3488;42.616;23.350;2022-11-18T01:18:53;8.43;;;5.00;;
6898;SDS011;3488;42.616;23.350;2022-11-18T01:21:21;5.75;;;5.30;;
6898;SDS011;3488;42.616;23.350;2022-11-18T01:23:48;6.75;;;6.15;;
6898;SDS011;3488;42.616;23.350;2022-11-18T01:26:15;7.72;;;6.57;;
6898;SDS011;3488;42.616;23.350;2022-11-18T01:28:43;7.70;;;6.93;;
6898;SDS011;3488;42.616;23.350;2022-11-18T01:31:11;10.50;;;6.38;;
6898;SDS011;3488;42.616;23.350;2022-11-18T01:33:41;7.97;;;6.78;;
6898;SDS011;3488;42.616;23.350;2022-11-18T01:36:13;10.30;;;7.97;;
6898;SDS011;3488;42.616;23.350;2022-11-18T01:38:41;12.57;;;7.60;;
6898;SDS011;3488;42.616;23.350;2022-11-18T01:41:09;8.93;;;6.97;;
6898;SDS011;3488;42.616;23.350;2022-11-18T01:43:46;8.23;;;7.43;;
6898;SDS011;3488;42.616;23.350;2022-11-18T01:46:15;11.10;;;7.55;;
6898;SDS011;3488;42.616;23.350;2022-11-18T01:48:44;10.50;;;7.20;;
6898;SDS011;3488;42.616;23.350;2022-11-18T01:51:14;7.50;;;6.78;;
6898;SDS011;3488;42.616;23.350;2022-11-18T01:53:44;9.88;;;7.32;;
6898;SDS011;3488;42.616;23.350;2022-11-18T01:56:16;8.43;;;7.18;;
6898;SDS011;3488;42.616;23.350;2022-11-18T01:58:49;10.80;;;7.38;;
6898;SDS011;3488;42.616;23.350;2022-11-18T02:01:18;7.10;;;6.40;;
6898;SDS011;3488;42.616;23.350;2022-11-18T02:03:48;7.53;;;6.72;;
6898;SDS011;3488;42.616;23.350;2022-11-18T02:06:16;9.82;;;7.53;;
6898;SDS011;3488;42.616;23.350;2022-11-18T02:08:44;9.60;;;7.47;;
6898;SDS011;3488;42.616;23.350;2022-11-18T02:11:12;9.32;;;7.22;;
6898;SDS011;3488;42.616;23.350;2022-11-18T02:13:54;7.10;;;6.05;;
6898;SDS011;3488;42.616;23.350;2022-11-18T02:16:23;8.45;;;6.68;;
6898;SDS011;3488;42.616;23.350;2022-11-18T02:18:59;6.30;;;5.80;;
6898;SDS011;3488;42.616;23.350;2022-11-18T02:21:33;7.18;;;6.22;;
6898;SDS011;3488;42.616;23.350;2022-11-18T02:24:21;5.82;;;5.32;;
6898;SDS011;3488;42.616;23.350;2022-11-18T02:30:02;6.60;;;5.53;;
6898;SDS011;3488;42.616;23.350;2022-11-18T02:32:32;6.28;;;5.22;;
6898;SDS011;3488;42.616;23.350;2022-11-18T02:35:05;5.78;;;4.78;;
6898;SDS011;3488;42.616;23.350;2022-11-18T02:37:41;6.25;;;5.65;;
6898;SDS011;3488;42.616;23.350;2022-11-18T02:40:12;8.45;;;5.55;;
6898;SDS011;3488;42.616;23.350;2022-11-18T02:42:43;6.95;;;5.35;;
6898;SDS011;3488;42.616;23.350;2022-11-18T02:45:17;5.30;;;4.90;;
6898;SDS011;3488;42.616;23.350;2022-11-18T02:47:46;10.02;;;6.65;;
6898;SDS011;3488;42.616;23.350;2022-11-18T02:50:16;6.00;;;5.53;;
6898;SDS011;3488;42.616;23.350;2022-11-18T02:52:46;6.13;;;5.53;;
6898;SDS011;3488;42.616;23.350;2022-11-18T02:55:18;6.47;;;5.10;;
6898;SDS011;3488;42.616;23.350;2022-11-18T02:57:47;7.18;;;5.82;;
6898;SDS011;3488;42.616;23.350;2022-11-18T03:02:44;10.60;;;9.07;;
6898;SDS011;3488;42.616;23.350;2022-11-18T03:05:15;9.68;;;7.60;;
6898;SDS011;3488;42.616;23.350;2022-11-18T03:07:45;12.07;;;9.18;;
6898;SDS011;3488;42.616;23.350;2022-11-18T03:10:17;12.10;;;9.38;;
6898;SDS011;3488;42.616;23.350;2022-11-18T03:12:50;9.63;;;8.20;;
6898;SDS011;3488;42.616;23.350;2022-11-18T03:15:26;10.50;;;8.00;;
6898;SDS011;3488;42.616;23.350;2022-11-18T03:18:05;10.63;;;7.85;;
6898;SDS011;3488;42.616;23.350;2022-11-18T03:20:37;12.63;;;9.25;;
6898;SDS011;3488;42.616;23.350;2022-11-18T03:23:13;12.95;;;8.50;;
6898;SDS011;3488;42.616;23.350;2022-11-18T03:25:49;7.40;;;6.70;;
6898;SDS011;3488;42.616;23.350;2022-11-18T03:28:21;9.40;;;7.85;;
6898;SDS011;3488;42.616;23.350;2022-11-18T03:30:54;6.65;;;5.95;;
6898;SDS011;3488;42.616;23.350;2022-11-18T03:33:23;7.18;;;6.40;;
6898;SDS011;3488;42.616;23.350;2022-11-18T03:35:59;15.45;;;9.65;;
6898;SDS011;3488;42.616;23.350;2022-11-18T03:38:29;10.15;;;9.13;;
6898;SDS011;3488;42.616;23.350;2022-11-18T03:41:02;13.23;;;10.55;;
6898;SDS011;3488;42.616;23.350;2022-11-18T03:43:33;17.15;;;11.52;;
6898;SDS011;3488;42.616;23.350;2022-11-18T03:46:06;16.00;;;12.80;;
6898;SDS011;3488;42.616;23.350;2022-11-18T03:48:40;14.80;;;10.55;;
6898;SDS011;3488;42.616;23.350;2022-11-18T03:51:15;14.15;;;10.23;;
6898;SDS011;3488;42.616;23.350;2022-11-18T03:53:46;16.15;;;10.15;;
6898;SDS011;3488;42.616;23.350;2022-11-18T03:56:23;12.75;;;9.68;;
6898;SDS011;3488;42.616;23.350;2022-11-18T03:58:56;12.05;;;10.15;;
6898;SDS011;3488;42.616;23.350;2022-11-18T04:01:30;15.43;;;10.85;;
6898;SDS011;3488;42.616;23.350;2022-11-18T04:04:01;12.50;;;10.63;;
6898;SDS011;3488;42.616;23.350;2022-11-18T04:06:29;11.52;;;9.63;;
6898;SDS011;3488;42.616;23.350;2022-11-18T04:09:02;11.68;;;9.27;;
6898;SDS011;3488;42.616;23.350;2022-11-18T04:11:34;10.98;;;9.30;;
6898;SDS011;3488;42.616;23.350;2022-11-18T04:14:26;19.08;;;11.95;;
6898;SDS011;3488;42.616;23.350;2022-11-18T04:16:55;15.48;;;11.27;;
6898;SDS011;3488;42.616;23.350;2022-11-18T04:19:22;10.45;;;9.32;;
6898;SDS011;3488;42.616;23.350;2022-11-18T04:21:49;9.43;;;8.30;;
6898;SDS011;3488;42.616;23.350;2022-11-18T04:24:17;14.35;;;11.13;;
6898;SDS011;3488;42.616;23.350;2022-11-18T04:26:44;17.70;;;9.75;;
6898;SDS011;3488;42.616;23.350;2022-11-18T04:29:11;14.85;;;10.90;;
6898;SDS011;3488;42.616;23.350;2022-11-18T04:31:38;11.48;;;9.68;;
6898;SDS011;3488;42.616;23.350;2022-11-18T04:34:07;9.80;;;7.43;;
6898;SDS011;3488;42.616;23.350;2022-11-18T04:36:33;9.93;;;8.60;;
6898;SDS011;3488;42.616;23.350;2022-11-18T04:39:00;15.18;;;9.25;;
6898;SDS011;3488;42.616;23.350;2022-11-18T04:41:27;10.73;;;9.35;;
6898;SDS011;3488;42.616;23.350;2022-11-18T04:44:10;13.77;;;10.63;;
6898;SDS011;3488;42.616;23.350;2022-11-18T04:46:38;15.25;;;11.65;;
6898;SDS011;3488;42.616;23.350;2022-11-18T04:49:08;13.90;;;10.68;;
6898;SDS011;3488;42.616;23.350;2022-11-18T04:51:36;17.17;;;11.77;;
6898;SDS011;3488;42.616;23.350;2022-11-18T04:54:04;15.07;;;11.23;;
6898;SDS011;3488;42.616;23.350;2022-11-18T04:56:31;17.52;;;12.38;;
6898;SDS011;3488;42.616;23.350;2022-11-18T04:58:58;17.48;;;12.60;;
6898;SDS011;3488;42.616;23.350;2022-11-18T05:01:26;16.52;;;12.00;;
6898;SDS011;3488;42.616;23.350;2022-11-18T05:03:54;15.05;;;11.27;;
6898;SDS011;3488;42.616;23.350;2022-11-18T05:06:23;17.83;;;12.48;;
6898;SDS011;3488;42.616;23.350;2022-11-18T05:08:50;14.02;;;10.60;;
6898;SDS011;3488;42.616;23.350;2022-11-18T05:11:16;15.43;;;10.70;;
6898;SDS011;3488;42.616;23.350;2022-11-18T05:14:01;20.20;;;13.15;;
6898;SDS011;3488;42.616;23.350;2022-11-18T05:16:28;23.95;;;12.57;;
6898;SDS011;3488;42.616;23.350;2022-11-18T05:18:55;23.38;;;15.00;;
6898;SDS011;3488;42.616;23.350;2022-11-18T05:21:23;11.95;;;9.68;;
6898;SDS011;3488;42.616;23.350;2022-11-18T05:23:50;15.35;;;11.35;;
6898;SDS011;3488;42.616;23.350;2022-11-18T05:26:18;158.65;;;23.73;;
6898;SDS011;3488;42.616;23.350;2022-11-18T05:28:45;149.40;;;25.73;;
6898;SDS011;3488;42.616;23.350;2022-11-18T05:31:13;26.25;;;15.80;;
6898;SDS011;3488;42.616;23.350;2022-11-18T05:33:41;71.97;;;20.05;;
6898;SDS011;3488;42.616;23.350;2022-11-18T05:36:10;26.75;;;15.82;;
6898;SDS011;3488;42.616;23.350;2022-11-18T05:38:39;16.17;;;12.50;;
6898;SDS011;3488;42.616;23.350;2022-11-18T05:41:07;24.73;;;14.93;;
6898;SDS011;3488;42.616;23.350;2022-11-18T05:43:55;19.85;;;12.60;;
6898;SDS011;3488;42.616;23.350;2022-11-18T05:46:21;18.70;;;13.07;;
6898;SDS011;3488;42.616;23.350;2022-11-18T05:48:48;14.35;;;12.18;;
6898;SDS011;3488;42.616;23.350;2022-11-18T05:51:15;13.73;;;11.20;;
6898;SDS011;3488;42.616;23.350;2022-11-18T05:53:44;22.38;;;13.23;;
6898;SDS011;3488;42.616;23.350;2022-11-18T05:56:15;17.75;;;14.05;;
6898;SDS011;3488;42.616;23.350;2022-11-18T05:58:46;22.40;;;15.07;;
6898;SDS011;3488;42.616;23.350;2022-11-18T06:01:13;21.13;;;14.15;;
6898;SDS011;3488;42.616;23.350;2022-11-18T06:03:47;13.65;;;10.98;;
6898;SDS011;3488;42.616;23.350;2022-11-18T06:06:15;16.30;;;11.40;;
6898;SDS011;3488;42.616;23.350;2022-11-18T06:08:46;20.52;;;12.07;;
6898;SDS011;3488;42.616;23.350;2022-11-18T06:11:18;17.42;;;13.27;;
6898;SDS011;3488;42.616;23.350;2022-11-18T06:13:47;17.65;;;13.20;;
6898;SDS011;3488;42.616;23.350;2022-11-18T06:16:18;15.32;;;12.70;;
6898;SDS011;3488;42.616;23.350;2022-11-18T06:18:50;16.00;;;11.65;;
6898;SDS011;3488;42.616;23.350;2022-11-18T06:21:17;22.35;;;15.15;;
6898;SDS011;3488;42.616;23.350;2022-11-18T06:23:46;22.42;;;15.38;;
6898;SDS011;3488;42.616;23.350;2022-11-18T06:26:13;24.80;;;16.42;;
6898;SDS011;3488;42.616;23.350;2022-11-18T06:28:42;23.20;;;16.60;;
6898;SDS011;3488;42.616;23.350;2022-11-18T06:31:11;26.85;;;17.13;;
6898;SDS011;3488;42.616;23.350;2022-11-18T06:33:38;24.65;;;17.05;;
6898;SDS011;3488;42.616;23.350;2022-11-18T06:36:05;30.02;;;20.10;;
6898;SDS011;3488;42.616;23.350;2022-11-18T06:38:32;28.20;;;19.80;;
6898;SDS011;3488;42.616;23.350;2022-11-18T06:41:01;28.13;;;19.10;;
6898;SDS011;3488;42.616;23.350;2022-11-18T06:43:28;27.75;;;19.35;;
6898;SDS011;3488;42.616;23.350;2022-11-18T06:46:03;28.15;;;19.17;;
6898;SDS011;3488;42.616;23.350;2022-11-18T06:48:54;25.45;;;18.90;;
6898;SDS011;3488;42.616;23.350;2022-11-18T06:51:21;25.92;;;19.40;;
6898;SDS011;3488;42.616;23.350;2022-11-18T06:53:49;24.17;;;17.38;;
6898;SDS011;3488;42.616;23.350;2022-11-18T06:56:18;21.52;;;17.25;;
6898;SDS011;3488;42.616;23.350;2022-11-18T06:58:51;21.75;;;17.33;;
6898;SDS011;3488;42.616;23.350;2022-11-18T07:01:19;33.67;;;18.17;;
6898;SDS011;3488;42.616;23.350;2022-11-18T07:03:47;26.58;;;19.17;;
6898;SDS011;3488;42.616;23.350;2022-11-18T07:06:15;32.80;;;19.02;;
6898;SDS011;3488;42.616;23.350;2022-11-18T07:08:43;32.90;;;20.25;;
6898;SDS011;3488;42.616;23.350;2022-11-18T07:11:11;35.72;;;18.65;;
6898;SDS011;3488;42.616;23.350;2022-11-18T07:13:41;47.40;;;24.65;;
6898;SDS011;3488;42.616;23.350;2022-11-18T07:16:09;43.35;;;25.05;;
6898;SDS011;3488;42.616;23.350;2022-11-18T07:18:38;49.40;;;24.65;;
6898;SDS011;3488;42.616;23.350;2022-11-18T07:21:07;43.35;;;24.92;;
6898;SDS011;3488;42.616;23.350;2022-11-18T07:23:36;46.10;;;24.67;;
6898;SDS011;3488;42.616;23.350;2022-11-18T07:26:04;36.05;;;22.55;;
6898;SDS011;3488;42.616;23.350;2022-11-18T07:28:31;35.45;;;21.98;;
6898;SDS011;3488;42.616;23.350;2022-11-18T07:31:00;35.42;;;21.52;;
6898;SDS011;3488;42.616;23.350;2022-11-18T07:33:28;29.92;;;19.17;;
6898;SDS011;3488;42.616;23.350;2022-11-18T07:35:59;38.92;;;22.95;;
6898;SDS011;3488;42.616;23.350;2022-11-18T07:38:27;32.45;;;20.30;;
6898;SDS011;3488;42.616;23.350;2022-11-18T07:40:54;34.05;;;20.38;;
6898;SDS011;3488;42.616;23.350;2022-11-18T07:43:22;31.60;;;19.27;;
6898;SDS011;3488;42.616;23.350;2022-11-18T07:45:49;23.50;;;15.68;;
6898;SDS011;3488;42.616;23.350;2022-11-18T07:48:17;24.35;;;15.07;;
6898;SDS011;3488;42.616;23.350;2022-11-18T07:50:44;22.05;;;14.40;;
6898;SDS011;3488;42.616;23.350;2022-11-18T07:53:10;18.13;;;13.20;;
6898;SDS011;3488;42.616;23.350;2022-11-18T07:55:37;16.42;;;12.13;;
6898;SDS011;3488;42.616;23.350;2022-11-18T07:58:04;11.15;;;8.57;;
6898;SDS011;3488;42.616;23.350;2022-11-18T08:00:31;16.75;;;11.27;;
6898;SDS011;3488;42.616;23.350;2022-11-18T08:02:58;15.38;;;11.32;;
6898;SDS011;3488;42.616;23.350;2022-11-18T08:05:26;12.05;;;10.20;;
6898;SDS011;3488;42.616;23.350;2022-11-18T08:07:53;15.55;;;10.98;;
6898;SDS011;3488;42.616;23.350;2022-11-18T08:10:20;17.63;;;11.25;;
6898;SDS011;3488;42.616;23.350;2022-11-18T08:12:49;16.98;;;12.38;;
6898;SDS011;3488;42.616;23.350;2022-11-18T08:15:15;18.75;;;14.38;;
6898;SDS011;3488;42.616;23.350;2022-11-18T08:17:42;34.38;;;17.27;;
6898;SDS011;3488;42.616;23.350;2022-11-18T08:20:10;28.25;;;16.77;;
6898;SDS011;3488;42.616;23.350;2022-11-18T08:22:39;24.42;;;15.45;;
6898;SDS011;3488;42.616;23.350;2022-11-18T08:25:06;24.40;;;16.35;;
6898;SDS011;3488;42.616;23.350;2022-11-18T08:27:33;25.67;;;15.52;;
6898;SDS011;3488;42.616;23.350;2022-11-18T08:30:00;29.38;;;17.60;;
6898;SDS011;3488;42.616;23.350;2022-11-18T08:32:27;33.17;;;17.58;;
6898;SDS011;3488;42.616;23.350;2022-11-18T08:34:55;25.50;;;16.27;;
6898;SDS011;3488;42.616;23.350;2022-11-18T08:37:22;28.90;;;15.70;;
6898;SDS011;3488;42.616;23.350;2022-11-18T08:39:51;23.60;;;16.63;;
6898;SDS011;3488;42.616;23.350;2022-11-18T08:42:18;24.70;;;16.60;;
6898;SDS011;3488;42.616;23.350;2022-11-18T08:44:46;29.13;;;16.77;;
6898;SDS011;3488;42.616;23.350;2022-11-18T08:47:13;22.85;;;16.63;;
6898;SDS011;3488;42.616;23.350;2022-11-18T08:49:40;25.05;;;14.32;;
6898;SDS011;3488;42.616;23.350;2022-11-18T08:52:07;15.88;;;12.68;;
6898;SDS011;3488;42.616;23.350;2022-11-18T08:54:34;14.98;;;9.77;;
6898;SDS011;3488;42.616;23.350;2022-11-18T08:57:03;10.23;;;8.90;;
6898;SDS011;3488;42.616;23.350;2022-11-18T08:59:30;11.55;;;8.50;;
6898;SDS011;3488;42.616;23.350;2022-11-18T09:01:57;10.60;;;8.88;;
6898;SDS011;3488;42.616;23.350;2022-11-18T09:04:24;13.90;;;9.52;;
6898;SDS011;3488;42.616;23.350;2022-11-18T09:06:51;15.13;;;9.85;;
6898;SDS011;3488;42.616;23.350;2022-11-18T09:09:18;13.38;;;9.85;;
6898;SDS011;3488;42.616;23.350;2022-11-18T09:11:45;15.15;;;11.48;;
6898;SDS011;3488;42.616;23.350;2022-11-18T09:14:13;13.18;;;10.07;;
6898;SDS011;3488;42.616;23.350;2022-11-18T09:16:40;15.63;;;12.23;;
6898;SDS011;3488;42.616;23.350;2022-11-18T09:19:07;15.95;;;11.40;;
6898;SDS011;3488;42.616;23.350;2022-11-18T09:21:33;17.13;;;11.68;;
6898;SDS011;3488;42.616;23.350;2022-11-18T09:24:02;14.63;;;11.50;;
6898;SDS011;3488;42.616;23.350;2022-11-18T09:26:30;16.45;;;10.75;;
6898;SDS011;3488;42.616;23.350;2022-11-18T09:28:57;14.35;;;11.23;;
6898;SDS011;3488;42.616;23.350;2022-11-18T09:31:26;19.40;;;11.27;;
6898;SDS011;3488;42.616;23.350;2022-11-18T09:33:57;16.50;;;12.95;;
6898;SDS011;3488;42.616;23.350;2022-11-18T09:36:28;16.90;;;11.27;;
6898;SDS011;3488;42.616;23.350;2022-11-18T09:38:55;15.23;;;10.82;;
6898;SDS011;3488;42.616;23.350;2022-11-18T09:41:34;14.82;;;8.93;;
6898;SDS011;3488;42.616;23.350;2022-11-18T09:44:10;12.18;;;9.38;;
6898;SDS011;3488;42.616;23.350;2022-11-18T09:46:50;17.42;;;10.10;;
6898;SDS011;3488;42.616;23.350;2022-11-18T09:49:30;23.38;;;12.35;;
6898;SDS011;3488;42.616;23.350;2022-11-18T09:52:04;15.27;;;10.70;;
6898;SDS011;3488;42.616;23.350;2022-11-18T09:54:36;14.55;;;9.38;;
6898;SDS011;3488;42.616;23.350;2022-11-18T09:57:09;10.75;;;8.20;;
6898;SDS011;3488;42.616;23.350;2022-11-18T09:59:40;11.32;;;8.93;;
6898;SDS011;3488;42.616;23.350;2022-11-18T10:02:18;13.00;;;9.82;;
6898;SDS011;3488;42.616;23.350;2022-11-18T10:05:00;15.10;;;8.77;;
6898;SDS011;3488;42.616;23.350;2022-11-18T10:07:40;12.63;;;7.85;;
6898;SDS011;3488;42.616;23.350;2022-11-18T10:10:17;18.80;;;7.95;;
6898;SDS011;3488;42.616;23.350;2022-11-18T10:12:48;12.18;;;7.15;;
6898;SDS011;3488;42.616;23.350;2022-11-18T10:15:23;11.20;;;8.20;;
6898;SDS011;3488;42.616;23.350;2022-11-18T10:18:00;10.50;;;7.00;;
6898;SDS011;3488;42.616;23.350;2022-11-18T10:20:46;8.85;;;6.03;;
6898;SDS011;3488;42.616;23.350;2022-11-18T10:23:23;9.35;;;6.35;;
6898;SDS011;3488;42.616;23.350;2022-11-18T10:25:55;10.65;;;7.00;;
6898;SDS011;3488;42.616;23.350;2022-11-18T10:28:23;11.88;;;7.53;;
6898;SDS011;3488;42.616;23.350;2022-11-18T10:30:53;13.52;;;9.65;;
6898;SDS011;3488;42.616;23.350;2022-11-18T10:33:30;32.40;;;19.77;;
6898;SDS011;3488;42.616;23.350;2022-11-18T10:36:07;17.77;;;9.95;;
6898;SDS011;3488;42.616;23.350;2022-11-18T10:39:03;16.70;;;9.45;;
6898;SDS011;3488;42.616;23.350;2022-11-18T10:41:34;16.08;;;9.20;;
6898;SDS011;3488;42.616;23.350;2022-11-18T10:44:05;12.25;;;8.40;;
6898;SDS011;3488;42.616;23.350;2022-11-18T10:46:51;14.65;;;8.32;;
6898;SDS011;3488;42.616;23.350;2022-11-18T10:49:21;11.15;;;7.00;;
6898;SDS011;3488;42.616;23.350;2022-11-18T10:52:03;9.43;;;6.63;;
6898;SDS011;3488;42.616;23.350;2022-11-18T10:54:34;10.43;;;7.85;;
6898;SDS011;3488;42.616;23.350;2022-11-18T10:57:03;16.98;;;9.15;;
6898;SDS011;3488;42.616;23.350;2022-11-18T10:59:33;12.02;;;7.85;;
6898;SDS011;3488;42.616;23.350;2022-11-18T11:02:10;9.30;;;7.45;;
6898;SDS011;3488;42.616;23.350;2022-11-18T11:04:45;12.38;;;7.13;;
6898;SDS011;3488;42.616;23.350;2022-11-18T11:07:14;16.42;;;7.53;;
6898;SDS011;3488;42.616;23.350;2022-11-18T11:09:43;16.63;;;7.25;;
6898;SDS011;3488;42.616;23.350;2022-11-18T11:12:12;10.60;;;8.05;;
6898;SDS011;3488;42.616;23.350;2022-11-18T11:14:44;15.65;;;9.77;;
6898;SDS011;3488;42.616;23.350;2022-11-18T11:17:17;23.30;;;12.90;;
6898;SDS011;3488;42.616;23.350;2022-11-18T11:19:51;23.10;;;14.35;;
6898;SDS011;3488;42.616;23.350;2022-11-18T11:22:27;27.77;;;15.43;;
6898;SDS011;3488;42.616;23.350;2022-11-18T11:24:54;23.95;;;11.82;;
6898;SDS011;3488;42.616;23.350;2022-11-18T11:27:32;25.27;;;14.90;;
6898;SDS011;3488;42.616;23.350;2022-11-18T11:30:19;23.95;;;13.45;;
6898;SDS011;3488;42.616;23.350;2022-11-18T11:32:53;29.77;;;14.60;;
6898;SDS011;3488;42.616;23.350;2022-11-18T11:35:44;29.38;;;14.73;;
6898;SDS011;3488;42.616;23.350;2022-11-18T11:38:25;29.35;;;14.93;;
6898;SDS011;3488;42.616;23.350;2022-11-18T11:41:09;23.20;;;14.30;;
6898;SDS011;3488;42.616;23.350;2022-11-18T11:43:50;27.42;;;12.68;;
6898;SDS011;3488;42.616;23.350;2022-11-18T11:46:31;31.35;;;14.45;;
6898;SDS011;3488;42.616;23.350;2022-11-18T11:49:33;29.67;;;15.25;;
6898;SDS011;3488;42.616;23.350;2022-11-18T11:52:15;31.38;;;15.60;;
6898;SDS011;3488;42.616;23.350;2022-11-18T11:54:49;31.02;;;15.10;;
6898;SDS011;3488;42.616;23.350;2022-11-18T11:57:22;25.65;;;16.02;;
6898;SDS011;3488;42.616;23.350;2022-11-18T12:00:00;29.27;;;16.50;;
6898;SDS011;3488;42.616;23.350;2022-11-18T12:02:37;30.98;;;15.13;;
6898;SDS011;3488;42.616;23.350;2022-11-18T12:05:16;30.88;;;15.43;;
6898;SDS011;3488;42.616;23.350;2022-11-18T12:07:50;24.05;;;13.98;;
6898;SDS011;3488;42.616;23.350;2022-11-18T12:10:26;29.50;;;17.00;;
6898;SDS011;3488;42.616;23.350;2022-11-18T12:13:01;30.48;;;14.90;;
6898;SDS011;3488;42.616;23.350;2022-11-18T12:15:42;19.88;;;12.38;;
6898;SDS011;3488;42.616;23.350;2022-11-18T12:18:17;20.27;;;11.50;;
6898;SDS011;3488;42.616;23.350;2022-11-18T12:20:53;20.48;;;12.88;;
6898;SDS011;3488;42.616;23.350;2022-11-18T12:23:22;26.77;;;13.00;;
6898;SDS011;3488;42.616;23.350;2022-11-18T12:25:55;16.63;;;11.45;;
6898;SDS011;3488;42.616;23.350;2022-11-18T12:28:25;15.80;;;9.40;;
6898;SDS011;3488;42.616;23.350;2022-11-18T12:33:57;15.02;;;9.57;;
6898;SDS011;3488;42.616;23.350;2022-11-18T12:36:28;18.80;;;11.05;;
6898;SDS011;3488;42.616;23.350;2022-11-18T12:38:58;23.48;;;11.35;;
6898;SDS011;3488;42.616;23.350;2022-11-18T12:41:51;18.25;;;10.40;;
6898;SDS011;3488;42.616;23.350;2022-11-18T12:44:37;18.85;;;9.48;;
6898;SDS011;3488;42.616;23.350;2022-11-18T12:47:05;17.95;;;10.10;;
6898;SDS011;3488;42.616;23.350;2022-11-18T12:52:46;18.83;;;11.50;;
6898;SDS011;3488;42.616;23.350;2022-11-18T12:55:17;19.23;;;10.73;;
6898;SDS011;3488;42.616;23.350;2022-11-18T12:57:48;24.30;;;11.88;;
6898;SDS011;3488;42.616;23.350;2022-11-18T13:00:16;18.77;;;10.45;;
6898;SDS011;3488;42.616;23.350;2022-11-18T13:02:50;20.35;;;10.07;;
6898;SDS011;3488;42.616;23.350;2022-11-18T13:05:18;18.85;;;9.30;;
6898;SDS011;3488;42.616;23.350;2022-11-18T13:07:48;12.70;;;9.25;;
6898;SDS011;3488;42.616;23.350;2022-11-18T13:10:38;12.18;;;7.78;;
6898;SDS011;3488;42.616;23.350;2022-11-18T13:13:12;16.30;;;8.57;;
6898;SDS011;3488;42.616;23.350;2022-11-18T13:15:48;13.52;;;10.02;;
6898;SDS011;3488;42.616;23.350;2022-11-18T13:18:33;14.18;;;8.48;;
6898;SDS011;3488;42.616;23.350;2022-11-18T13:21:18;16.15;;;8.75;;
6898;SDS011;3488;42.616;23.350;2022-11-18T13:24:04;11.05;;;8.52;;
6898;SDS011;3488;42.616;23.350;2022-11-18T13:26:33;13.38;;;8.60;;
6898;SDS011;3488;42.616;23.350;2022-11-18T13:29:18;11.57;;;8.35;;
6898;SDS011;3488;42.616;23.350;2022-11-18T13:32:02;9.05;;;6.50;;
6898;SDS011;3488;42.616;23.350;2022-11-18T13:34:42;13.43;;;7.40;;
6898;SDS011;3488;42.616;23.350;2022-11-18T13:37:14;10.73;;;7.00;;
6898;SDS011;3488;42.616;23.350;2022-11-18T13:39:46;10.90;;;7.28;;
6898;SDS011;3488;42.616;23.350;2022-11-18T13:42:17;11.23;;;6.70;;
6898;SDS011;3488;42.616;23.350;2022-11-18T13:44:50;7.18;;;5.07;;
6898;SDS011;3488;42.616;23.350;2022-11-18T13:47:23;2.50;;;2.40;;
6898;SDS011;3488;42.616;23.350;2022-11-18T13:50:02;3.55;;;2.45;;
6898;SDS011;3488;42.616;23.350;2022-11-18T13:52:40;3.03;;;1.52;;
6898;SDS011;3488;42.616;23.350;2022-11-18T13:55:12;2.30;;;2.10;;
6898;SDS011;3488;42.616;23.350;2022-11-18T13:57:46;3.20;;;2.20;;
6898;SDS011;3488;42.616;23.350;2022-11-18T14:00:22;2.80;;;2.58;;
6898;SDS011;3488;42.616;23.350;2022-11-18T14:02:52;2.65;;;1.95;;
6898;SDS011;3488;42.616;23.350;2022-11-18T14:05:22;2.53;;;1.90;;
6898;SDS011;3488;42.616;23.350;2022-11-18T14:08:00;2.13;;;1.95;;
6898;SDS011;3488;42.616;23.350;2022-11-18T14:10:40;2.13;;;2.03;;
6898;SDS011;3488;42.616;23.350;2022-11-18T14:13:16;4.00;;;2.20;;
6898;SDS011;3488;42.616;23.350;2022-11-18T14:15:48;1.70;;;1.60;;
6898;SDS011;3488;42.616;23.350;2022-11-18T14:18:17;3.33;;;1.70;;
6898;SDS011;3488;42.616;23.350;2022-11-18T14:20:49;2.22;;;1.60;;
6898;SDS011;3488;42.616;23.350;2022-11-18T14:23:17;5.07;;;2.13;;
6898;SDS011;3488;42.616;23.350;2022-11-18T14:25:51;1.65;;;1.55;;
6898;SDS011;3488;42.616;23.350;2022-11-18T14:28:21;2.20;;;2.00;;
6898;SDS011;3488;42.616;23.350;2022-11-18T14:30:55;3.75;;;2.55;;
6898;SDS011;3488;42.616;23.350;2022-11-18T14:33:24;2.30;;;2.20;;
6898;SDS011;3488;42.616;23.350;2022-11-18T14:35:53;3.92;;;2.10;;
6898;SDS011;3488;42.616;23.350;2022-11-18T14:38:23;1.60;;;1.50;;
6898;SDS011;3488;42.616;23.350;2022-11-18T14:40:55;1.70;;;1.60;;
6898;SDS011;3488;42.616;23.350;2022-11-18T14:43:25;2.42;;;2.15;;
6898;SDS011;3488;42.616;23.350;2022-11-18T14:45:53;1.95;;;1.80;;
6898;SDS011;3488;42.616;23.350;2022-11-18T14:48:22;1.60;;;1.50;;
6898;SDS011;3488;42.616;23.350;2022-11-18T14:50:51;1.33;;;1.30;;
6898;SDS011;3488;42.616;23.350;2022-11-18T14:53:18;2.78;;;1.70;;
6898;SDS011;3488;42.616;23.350;2022-11-18T14:55:46;2.20;;;2.10;;
6898;SDS011;3488;42.616;23.350;2022-11-18T14:58:16;1.10;;;1.00;;
6898;SDS011;3488;42.616;23.350;2022-11-18T15:00:45;1.13;;;1.13;;
6898;SDS011;3488;42.616;23.350;2022-11-18T15:03:14;2.90;;;1.77;;
6898;SDS011;3488;42.616;23.350;2022-11-18T15:05:41;2.88;;;2.08;;
6898;SDS011;3488;42.616;23.350;2022-11-18T15:08:08;2.60;;;1.63;;
6898;SDS011;3488;42.616;23.350;2022-11-18T15:10:35;1.73;;;1.50;;
6898;SDS011;3488;42.616;23.350;2022-11-18T15:13:02;1.20;;;1.13;;
6898;SDS011;3488;42.616;23.350;2022-11-18T15:15:29;1.40;;;1.35;;
6898;SDS011;3488;42.616;23.350;2022-11-18T15:17:58;3.25;;;1.25;;
6898;SDS011;3488;42.616;23.350;2022-11-18T15:20:25;1.75;;;1.60;;
6898;SDS011;3488;42.616;23.350;2022-11-18T15:22:52;1.98;;;1.88;;